createdAt,value
2023-02-15T00:00:36.136Z,81.50
2023-02-15T00:03:03.129Z,81.70
2023-02-15T00:05:32.252Z,81.40
2023-02-15T00:07:59.322Z,81.10
2023-02-15T00:10:26.236Z,81.30
2023-02-15T00:12:53.146Z,81.20
2023-02-15T00:15:20.015Z,81.40
2023-02-15T00:17:46.910Z,81.10
2023-02-15T00:24:26.456Z,80.30
2023-02-15T00:35:19.135Z,81.00
2023-02-15T00:37:46.201Z,80.90
2023-02-15T00:40:13.433Z,80.80
2023-02-15T00:42:40.401Z,80.80
2023-02-15T00:45:09.520Z,80.70
2023-02-15T00:47:36.436Z,80.60
2023-02-15T00:50:04.441Z,80.50
2023-02-15T00:52:31.854Z,80.30
2023-02-15T00:54:58.914Z,80.20
2023-02-15T00:57:25.889Z,80.10
2023-02-15T00:59:52.919Z,79.90
2023-02-15T01:02:20.015Z,80.10
2023-02-15T01:04:47.334Z,80.40
2023-02-15T01:07:14.305Z,80.30
2023-02-15T01:09:41.254Z,80.10
2023-02-15T01:12:09.732Z,80.00
2023-02-15T01:14:36.690Z,79.70
2023-02-15T01:17:05.400Z,79.60
2023-02-15T01:19:35.883Z,79.60
2023-02-15T01:22:02.793Z,79.50
2023-02-15T01:24:29.707Z,79.90
2023-02-15T01:26:56.621Z,80.20
2023-02-15T01:29:23.584Z,80.00
2023-02-15T01:31:50.617Z,79.90
2023-02-15T01:34:17.632Z,79.90
2023-02-15T01:36:44.699Z,79.90
2023-02-15T01:39:12.622Z,79.60
2023-02-15T01:41:39.514Z,79.50
2023-02-15T01:44:44.958Z,79.50
2023-02-15T01:47:14.075Z,79.50
2023-02-15T01:49:42.712Z,79.50
2023-02-15T01:52:13.701Z,79.80
2023-02-15T01:54:43.932Z,79.80
2023-02-15T01:57:14.716Z,79.50
2023-02-15T01:59:46.104Z,79.40
2023-02-15T02:02:15.990Z,79.70
2023-02-15T02:04:48.332Z,80.00
2023-02-15T02:07:18.161Z,80.40
2023-02-15T02:09:46.866Z,80.50
2023-02-15T02:12:15.185Z,80.30
2023-02-15T02:14:43.179Z,80.20
2023-02-15T02:17:40.924Z,80.10
2023-02-15T02:20:32.867Z,79.80
2023-02-15T02:23:36.861Z,79.70
2023-02-15T02:26:18.782Z,79.40
2023-02-15T02:29:04.791Z,79.40
2023-02-15T02:32:02.352Z,79.10
2023-02-15T02:34:53.458Z,79.20
2023-02-15T02:37:37.096Z,79.30
2023-02-15T02:40:17.547Z,79.20
2023-02-15T02:43:01.338Z,79.30
2023-02-15T02:45:42.115Z,79.20
2023-02-15T02:48:18.097Z,79.20
2023-02-15T02:50:45.052Z,79.10
2023-02-15T02:53:12.467Z,79.00
2023-02-15T02:55:53.890Z,79.00
2023-02-15T02:58:32.522Z,79.00
2023-02-15T03:01:08.758Z,79.00
2023-02-15T03:03:44.822Z,78.80
2023-02-15T03:06:19.127Z,78.90
2023-02-15T03:08:56.157Z,78.70
2023-02-15T03:11:23.148Z,78.60
2023-02-15T03:13:51.921Z,78.50
2023-02-15T03:16:27.529Z,78.50
2023-02-15T03:19:00.643Z,78.20
2023-02-15T03:21:58.410Z,78.10
2023-02-15T03:24:37.527Z,78.10
2023-02-15T03:27:11.788Z,77.90
2023-02-15T03:29:40.028Z,77.90
2023-02-15T03:32:09.703Z,77.90
2023-02-15T03:34:36.998Z,78.10
2023-02-15T03:37:15.185Z,78.10
2023-02-15T03:40:21.312Z,78.00
2023-02-15T03:42:52.471Z,78.00
2023-02-15T03:45:26.256Z,78.20
2023-02-15T03:48:04.289Z,78.40
2023-02-15T03:50:52.310Z,78.20
2023-02-15T03:53:23.710Z,78.30
2023-02-15T03:55:55.432Z,78.30
2023-02-15T03:58:41.304Z,78.50
2023-02-15T04:01:39.937Z,78.60
2023-02-15T04:04:18.169Z,78.50
2023-02-15T04:06:45.225Z,78.40
2023-02-15T04:09:31.945Z,78.40
2023-02-15T04:11:59.228Z,78.40
2023-02-15T04:14:45.398Z,78.30
2023-02-15T04:17:12.549Z,78.30
2023-02-15T04:19:58.209Z,78.30
2023-02-15T04:22:43.577Z,77.80
2023-02-15T04:25:10.528Z,78.70
2023-02-15T04:27:38.328Z,79.20
2023-02-15T04:30:06.838Z,79.60
2023-02-15T04:32:35.218Z,79.40
2023-02-15T04:35:02.594Z,80.00
2023-02-15T04:37:29.871Z,79.00
2023-02-15T04:39:57.117Z,78.80
2023-02-15T04:42:24.200Z,78.80
2023-02-15T04:44:51.239Z,78.80
2023-02-15T04:47:18.350Z,78.60
2023-02-15T04:49:45.418Z,78.30
2023-02-15T04:52:12.511Z,78.50
2023-02-15T04:54:39.504Z,78.60
2023-02-15T04:57:10.912Z,78.70
2023-02-15T04:59:37.870Z,78.60
2023-02-15T05:02:04.884Z,78.50
2023-02-15T05:04:31.954Z,78.50
2023-02-15T05:06:59.114Z,78.50
2023-02-15T05:09:26.346Z,78.30
2023-02-15T05:11:53.448Z,77.80
2023-02-15T05:14:21.210Z,77.60
2023-02-15T05:16:49.964Z,77.70
2023-02-15T05:19:19.588Z,78.00
2023-02-15T05:21:51.032Z,77.90
2023-02-15T05:24:40.975Z,78.00
2023-02-15T05:27:30.721Z,77.80
2023-02-15T05:30:04.748Z,77.90
2023-02-15T05:32:33.418Z,78.00
2023-02-15T05:35:13.295Z,78.00
2023-02-15T05:37:45.460Z,78.20
2023-02-15T05:40:20.168Z,78.10
2023-02-15T05:42:51.169Z,78.20
2023-02-15T05:45:20.526Z,78.30
2023-02-15T05:47:55.892Z,78.30
2023-02-15T05:50:24.466Z,78.40
2023-02-15T05:52:54.556Z,78.10
2023-02-15T05:55:21.545Z,78.10
2023-02-15T05:57:49.631Z,78.10
2023-02-15T06:00:17.102Z,77.70
2023-02-15T06:02:44.447Z,77.40
2023-02-15T06:05:11.576Z,77.30
2023-02-15T06:07:38.667Z,77.50
2023-02-15T06:10:06.490Z,77.80
2023-02-15T06:12:33.823Z,77.90
2023-02-15T06:15:00.867Z,77.80
2023-02-15T06:17:28.015Z,77.60
2023-02-15T06:19:55.323Z,77.50
2023-02-15T06:22:22.351Z,77.50
2023-02-15T06:24:49.717Z,77.70
2023-02-15T06:27:16.887Z,77.80
2023-02-15T06:29:43.923Z,77.60
2023-02-15T06:32:11.142Z,77.50
2023-02-15T06:34:38.319Z,77.50
2023-02-15T06:37:05.619Z,77.40
2023-02-15T06:39:34.039Z,77.50
2023-02-15T06:42:01.218Z,77.50
2023-02-15T06:44:28.162Z,77.40
2023-02-15T06:46:55.140Z,77.40
2023-02-15T06:49:22.142Z,77.40
2023-02-15T06:51:49.083Z,77.50
2023-02-15T06:54:16.098Z,77.50
2023-02-15T06:56:44.582Z,77.40
2023-02-15T06:59:11.765Z,77.60
2023-02-15T07:01:39.064Z,77.50
2023-02-15T07:04:06.342Z,77.40
2023-02-15T07:06:38.492Z,77.30
2023-02-15T07:09:18.185Z,77.20
2023-02-15T07:12:18.375Z,77.30
2023-02-15T07:14:59.245Z,77.20
2023-02-15T07:20:26.801Z,76.90
2023-02-15T07:23:20.443Z,76.90
2023-02-15T07:26:01.027Z,76.90
2023-02-15T07:28:44.294Z,76.70
2023-02-15T07:31:55.878Z,76.40
2023-02-15T07:34:52.592Z,76.70
2023-02-15T07:37:30.301Z,76.90
2023-02-15T07:40:05.762Z,76.70
2023-02-15T07:42:54.949Z,76.60
2023-02-15T07:45:40.848Z,76.60
2023-02-15T07:51:35.434Z,75.60
2023-02-15T07:57:33.119Z,75.00
2023-02-15T08:00:00.096Z,74.70
2023-02-15T08:02:27.221Z,74.40
2023-02-15T08:04:54.172Z,74.50
2023-02-15T08:07:21.140Z,74.50
2023-02-15T08:09:48.150Z,74.40
2023-02-15T08:12:15.182Z,74.00
2023-02-15T08:14:42.095Z,73.80
2023-02-15T08:17:09.084Z,73.60
2023-02-15T08:19:36.658Z,73.60
2023-02-15T08:22:08.510Z,73.40
2023-02-15T08:24:39.590Z,73.20
2023-02-15T08:27:08.511Z,73.30
2023-02-15T08:29:37.207Z,73.40
2023-02-15T08:32:10.396Z,73.40
2023-02-15T08:34:40.225Z,73.20
2023-02-15T08:37:07.466Z,72.90
2023-02-15T08:39:34.919Z,73.10
2023-02-15T08:42:01.881Z,73.10
2023-02-15T08:44:29.212Z,72.80
2023-02-15T08:46:58.459Z,72.30
2023-02-15T08:49:25.620Z,72.30
2023-02-15T08:51:52.455Z,72.30
2023-02-15T08:54:22.677Z,72.00
2023-02-15T08:56:50.020Z,72.00
2023-02-15T08:59:22.730Z,72.00
2023-02-15T09:01:51.671Z,72.00
2023-02-15T09:04:19.022Z,72.00
2023-02-15T09:06:48.864Z,72.00
2023-02-15T09:09:17.191Z,72.00
2023-02-15T09:11:45.698Z,72.10
2023-02-15T09:14:18.266Z,72.10
2023-02-15T09:16:47.450Z,71.90
2023-02-15T09:19:14.577Z,71.70
2023-02-15T09:21:41.987Z,71.40
2023-02-15T09:24:11.410Z,71.10
2023-02-15T09:26:41.783Z,71.80
2023-02-15T09:29:09.814Z,71.30
2023-02-15T09:31:45.027Z,71.20
2023-02-15T09:34:14.092Z,71.30
2023-02-15T09:36:41.882Z,71.70
2023-02-15T09:39:15.262Z,72.00
2023-02-15T09:42:04.168Z,72.10
2023-02-15T09:45:05.210Z,71.80
2023-02-15T09:48:06.021Z,71.40
2023-02-15T09:50:50.006Z,71.20
2023-02-15T09:53:44.404Z,70.90
2023-02-15T09:56:21.168Z,70.60
2023-02-15T09:59:28.053Z,70.20
2023-02-15T10:02:24.672Z,70.00
2023-02-15T10:05:25.662Z,69.80
2023-02-15T10:08:07.948Z,69.50
2023-02-15T10:11:21.472Z,69.00
2023-02-15T10:14:17.785Z,69.50
2023-02-15T10:16:58.064Z,69.40
2023-02-15T10:19:56.157Z,69.50
2023-02-15T10:23:02.367Z,69.40
2023-02-15T10:26:13.886Z,69.30
2023-02-15T10:31:43.906Z,69.10
2023-02-15T10:34:23.747Z,68.70
2023-02-15T10:36:55.870Z,68.50
2023-02-15T10:39:54.478Z,68.10
2023-02-15T10:42:22.200Z,68.20
2023-02-15T10:45:09.551Z,68.30
2023-02-15T10:48:07.278Z,68.20
2023-02-15T10:50:57.633Z,68.00
2023-02-15T10:53:44.291Z,67.80
2023-02-15T10:56:24.133Z,67.90
2023-02-15T10:59:24.581Z,67.70
2023-02-15T11:02:13.017Z,67.50
2023-02-15T11:04:54.283Z,67.90
2023-02-15T11:07:44.809Z,67.30
2023-02-15T11:10:36.020Z,66.40
2023-02-15T11:13:15.786Z,66.20
2023-02-15T11:15:49.481Z,65.90
2023-02-15T11:18:52.808Z,65.70
2023-02-15T11:21:40.445Z,65.80
2023-02-15T11:24:20.010Z,65.90
2023-02-15T11:27:01.073Z,65.80
2023-02-15T11:30:04.457Z,66.00
2023-02-15T11:32:46.078Z,66.00
2023-02-15T11:35:14.225Z,66.00
2023-02-15T11:37:50.026Z,66.30
2023-02-15T11:40:26.276Z,66.60
2023-02-15T11:42:58.663Z,67.10
2023-02-15T11:45:31.244Z,67.60
2023-02-15T11:48:01.095Z,68.20
2023-02-15T11:50:31.754Z,68.70
2023-02-15T11:53:05.243Z,69.20
2023-02-15T11:55:34.732Z,69.40
2023-02-15T11:58:09.829Z,69.80
2023-02-15T12:00:44.123Z,70.00
2023-02-15T12:03:47.149Z,70.30
2023-02-15T12:06:29.659Z,70.60
2023-02-15T12:09:06.476Z,70.80
2023-02-15T12:11:39.693Z,71.10
2023-02-15T12:14:18.268Z,71.20
2023-02-15T12:16:45.021Z,71.60
2023-02-15T12:19:40.868Z,71.80
2023-02-15T12:22:21.641Z,72.20
2023-02-15T12:24:49.808Z,72.50
2023-02-15T12:27:23.294Z,72.70
2023-02-15T12:29:53.664Z,72.80
2023-02-15T12:32:30.960Z,73.10
2023-02-15T12:35:24.988Z,73.20
2023-02-15T12:38:03.052Z,73.40
2023-02-15T12:40:33.300Z,73.50
2023-02-15T12:43:00.985Z,73.50
2023-02-15T12:45:33.526Z,74.40
2023-02-15T12:48:17.355Z,73.80
2023-02-15T12:50:54.723Z,73.90
2023-02-15T12:53:30.949Z,73.80
2023-02-15T12:56:10.082Z,73.80
2023-02-15T12:58:39.524Z,73.70
2023-02-15T13:01:22.226Z,73.80
2023-02-15T13:04:26.595Z,73.80
2023-02-15T13:06:57.147Z,74.00
2023-02-15T13:09:39.485Z,74.20
2023-02-15T13:12:20.786Z,74.40
2023-02-15T13:14:52.512Z,74.50
2023-02-15T13:17:31.662Z,74.50
2023-02-15T13:20:17.877Z,74.50
2023-02-15T13:22:47.593Z,74.40
2023-02-15T13:25:29.928Z,74.30
2023-02-15T13:28:01.490Z,74.40
2023-02-15T13:30:32.237Z,74.50
2023-02-15T13:33:34.407Z,74.50
2023-02-15T13:36:18.903Z,74.60
2023-02-15T13:39:20.892Z,74.60
2023-02-15T13:41:57.434Z,74.60
2023-02-15T13:44:53.952Z,74.70
2023-02-15T13:47:37.405Z,74.60
2023-02-15T13:50:13.704Z,74.60
2023-02-15T13:52:58.936Z,74.60
2023-02-15T13:55:25.780Z,74.60
2023-02-15T13:58:22.446Z,74.60
2023-02-15T14:01:28.365Z,74.60
2023-02-15T14:04:08.522Z,74.50
2023-02-15T14:06:47.998Z,74.40
2023-02-15T14:09:30.296Z,74.40
2023-02-15T14:12:29.582Z,74.10
2023-02-15T14:15:15.141Z,73.90
2023-02-15T14:17:59.698Z,73.60
2023-02-15T14:20:51.033Z,73.30
2023-02-15T14:23:35.952Z,73.00
2023-02-15T14:26:33.599Z,72.70
2023-02-15T14:29:00.397Z,72.30
2023-02-15T14:31:34.589Z,72.20
2023-02-15T14:34:01.538Z,72.80
2023-02-15T14:36:31.227Z,71.70
2023-02-15T14:39:49.139Z,71.40
2023-02-15T14:42:45.540Z,71.20
2023-02-15T14:45:22.489Z,71.10
2023-02-15T14:48:32.282Z,70.80
2023-02-15T14:50:59.324Z,70.30
2023-02-15T14:53:39.306Z,71.00
2023-02-15T14:56:14.631Z,69.80
2023-02-15T14:58:50.752Z,69.40
2023-02-15T15:01:30.589Z,69.00
2023-02-15T15:04:21.354Z,68.70
2023-02-15T15:07:09.704Z,68.50
2023-02-15T15:09:59.005Z,68.30
2023-02-15T15:12:25.887Z,68.40
2023-02-15T15:14:55.219Z,68.40
2023-02-15T15:17:34.982Z,68.00
2023-02-15T15:20:35.337Z,68.00
2023-02-15T15:23:39.913Z,68.20
2023-02-15T15:26:26.579Z,68.60
2023-02-15T15:28:54.128Z,68.90
2023-02-15T15:31:52.120Z,69.10
2023-02-15T15:34:42.040Z,69.20
2023-02-15T15:37:33.525Z,69.40
2023-02-15T15:40:37.280Z,69.60
2023-02-15T15:43:41.691Z,69.80
2023-02-15T15:46:25.346Z,69.90
2023-02-15T15:48:53.345Z,70.00
2023-02-15T15:51:28.135Z,70.10
2023-02-15T15:53:55.480Z,70.20
2023-02-15T15:56:30.842Z,70.30
2023-02-15T15:59:02.221Z,70.30
2023-02-15T16:01:32.025Z,70.30
2023-02-15T16:04:00.253Z,70.30
2023-02-15T16:06:33.526Z,70.40
2023-02-15T16:09:14.102Z,70.40
2023-02-15T16:11:41.864Z,70.50
2023-02-15T16:14:16.116Z,70.80
2023-02-15T16:16:51.543Z,71.10
2023-02-15T16:19:25.419Z,71.40
2023-02-15T16:21:52.921Z,71.40
2023-02-15T16:24:25.701Z,71.40
2023-02-15T16:27:13.801Z,71.60
2023-02-15T16:29:40.816Z,71.90
2023-02-15T16:32:22.285Z,72.10
2023-02-15T16:34:57.676Z,72.30
2023-02-15T16:37:32.668Z,72.50
2023-02-15T16:40:00.475Z,72.70
2023-02-15T16:42:27.565Z,73.00
2023-02-15T16:45:13.417Z,73.10
2023-02-15T16:47:46.540Z,73.40
2023-02-15T16:50:47.271Z,73.60
2023-02-15T16:53:25.231Z,73.90
2023-02-15T16:56:05.044Z,74.00
2023-02-15T16:58:43.774Z,74.20
2023-02-15T17:01:13.964Z,74.40
2023-02-15T17:03:43.998Z,74.50
2023-02-15T17:06:33.287Z,74.60
2023-02-15T17:09:15.119Z,74.80
2023-02-15T17:11:44.684Z,74.80
2023-02-15T17:14:15.583Z,75.10
2023-02-15T17:16:50.545Z,75.30
2023-02-15T17:19:24.750Z,75.50
2023-02-15T17:21:57.793Z,75.60
2023-02-15T17:24:46.807Z,75.70
2023-02-15T17:27:18.657Z,75.80
2023-02-15T17:29:52.737Z,76.00
2023-02-15T17:32:28.603Z,76.20
2023-02-15T17:35:00.268Z,76.00
2023-02-15T17:37:42.416Z,76.00
2023-02-15T17:40:23.241Z,76.00
2023-02-15T17:42:50.418Z,76.10
2023-02-15T17:45:18.246Z,76.30
2023-02-15T17:47:47.920Z,76.70
2023-02-15T17:50:25.149Z,76.80
2023-02-15T17:52:53.973Z,76.60
2023-02-15T17:55:35.593Z,76.60
2023-02-15T17:58:05.059Z,76.70
2023-02-15T18:00:57.547Z,76.60
2023-02-15T18:03:57.872Z,76.70
2023-02-15T18:06:44.055Z,76.80
2023-02-15T18:09:31.692Z,76.90
2023-02-15T18:11:59.258Z,77.70
2023-02-15T18:14:26.767Z,77.10
2023-02-15T18:16:55.199Z,77.30
2023-02-15T18:19:25.225Z,77.40
2023-02-15T18:21:55.744Z,77.40
2023-02-15T18:24:25.774Z,77.40
2023-02-15T18:26:54.542Z,77.60
2023-02-15T18:29:22.160Z,77.50
2023-02-15T18:31:53.715Z,77.60
2023-02-15T18:34:38.242Z,77.40
2023-02-15T18:37:10.084Z,77.50
2023-02-15T18:39:43.899Z,77.60
2023-02-15T18:42:27.500Z,77.50
2023-02-15T18:45:19.344Z,77.60
2023-02-15T18:47:46.966Z,77.50
2023-02-15T18:50:18.689Z,77.20
2023-02-15T18:52:48.127Z,77.30
2023-02-15T18:55:22.360Z,77.40
2023-02-15T18:57:51.467Z,77.60
2023-02-15T19:00:28.414Z,77.70
2023-02-15T19:03:00.193Z,77.80
2023-02-15T19:05:32.266Z,77.70
2023-02-15T19:08:04.270Z,77.70
2023-02-15T19:10:33.126Z,77.80
2023-02-15T19:13:00.119Z,77.80
2023-02-15T19:15:32.643Z,77.80
2023-02-15T19:18:00.003Z,77.60
2023-02-15T19:20:49.615Z,77.70
2023-02-15T19:23:21.023Z,77.40
2023-02-15T19:25:49.813Z,77.30
2023-02-15T19:28:33.205Z,77.60
2023-02-15T19:31:00.265Z,78.30
2023-02-15T19:33:27.962Z,78.50
2023-02-15T19:35:57.662Z,78.40
2023-02-15T19:38:30.847Z,78.10
2023-02-15T19:41:04.717Z,78.30
2023-02-15T19:43:31.781Z,78.50
2023-02-15T19:45:59.084Z,78.40
2023-02-15T19:48:27.685Z,78.50
2023-02-15T19:50:56.869Z,78.50
2023-02-15T19:53:26.411Z,78.50
2023-02-15T19:55:54.057Z,78.40
2023-02-15T19:58:21.864Z,78.20
2023-02-15T20:00:50.755Z,78.20
2023-02-15T20:03:17.811Z,78.30
2023-02-15T20:05:45.400Z,78.40
2023-02-15T20:08:21.344Z,78.50
2023-02-15T20:10:48.741Z,78.30
2023-02-15T20:13:17.778Z,78.20
2023-02-15T20:15:48.866Z,78.20
2023-02-15T20:18:15.870Z,78.10
2023-02-15T20:20:46.704Z,78.20
2023-02-15T20:23:30.879Z,78.20
2023-02-15T20:25:59.964Z,78.10
2023-02-15T20:28:29.595Z,77.80
2023-02-15T20:30:57.485Z,77.80
2023-02-15T20:33:25.392Z,77.80
2023-02-15T20:35:52.804Z,78.00
2023-02-15T20:38:28.977Z,78.00
2023-02-15T20:41:15.910Z,77.90
2023-02-15T20:43:42.974Z,78.00
2023-02-15T20:46:10.290Z,78.00
2023-02-15T20:48:37.462Z,77.90
2023-02-15T20:51:05.756Z,78.00
2023-02-15T20:53:33.126Z,78.00
2023-02-15T20:56:00.174Z,78.00
2023-02-15T20:58:29.960Z,78.20
2023-02-15T21:00:59.305Z,78.20
2023-02-15T21:03:30.964Z,78.00
2023-02-15T21:05:59.364Z,78.00
2023-02-15T21:08:26.910Z,77.90
2023-02-15T21:10:54.598Z,78.10
2023-02-15T21:13:22.122Z,78.30
2023-02-15T21:15:51.509Z,78.40
2023-02-15T21:18:38.794Z,78.50
2023-02-15T21:21:06.457Z,78.50
2023-02-15T21:23:40.394Z,78.40
2023-02-15T21:26:25.947Z,78.40
2023-02-15T21:28:53.047Z,78.40
2023-02-15T21:31:23.165Z,78.50
2023-02-15T21:33:50.297Z,78.50
2023-02-15T21:36:20.421Z,78.40
2023-02-15T21:39:22.055Z,78.30
2023-02-15T21:42:09.543Z,78.30
2023-02-15T21:44:55.411Z,78.20
2023-02-15T21:47:42.777Z,78.20
2023-02-15T21:50:33.665Z,78.20
2023-02-15T21:53:01.043Z,78.20
2023-02-15T21:55:28.260Z,78.40
2023-02-15T21:57:55.417Z,78.50
2023-02-15T22:00:25.228Z,78.60
2023-02-15T22:02:54.900Z,79.30
2023-02-15T22:05:31.107Z,78.60
2023-02-15T22:08:00.910Z,78.60
2023-02-15T22:10:31.905Z,78.40
2023-02-15T22:13:03.244Z,78.50
2023-02-15T22:15:37.400Z,78.60
2023-02-15T22:18:05.150Z,78.60
2023-02-15T22:20:32.410Z,78.60
2023-02-15T22:22:59.435Z,78.70
2023-02-15T22:25:28.760Z,78.60
2023-02-15T22:27:56.018Z,78.50
2023-02-15T22:30:34.525Z,78.50
2023-02-15T22:33:02.189Z,78.30
2023-02-15T22:35:35.002Z,78.00
2023-02-15T22:38:02.647Z,77.80
2023-02-15T22:40:32.849Z,78.00
2023-02-15T22:43:02.644Z,78.20
2023-02-15T22:45:32.782Z,78.10
2023-02-15T22:48:01.324Z,78.40
2023-02-15T22:50:37.939Z,78.60
2023-02-15T22:53:06.147Z,78.60
2023-02-15T22:55:36.176Z,78.80
2023-02-15T22:58:03.713Z,78.80
2023-02-15T23:09:03.680Z,78.80
2023-02-15T23:11:30.674Z,78.70
2023-02-15T23:13:57.655Z,78.80
2023-02-15T23:16:24.671Z,78.90
2023-02-15T23:18:52.203Z,78.70
2023-02-15T23:21:33.537Z,78.80
2023-02-15T23:24:34.657Z,78.80
2023-02-15T23:27:20.225Z,79.00
2023-02-15T23:30:27.791Z,78.90
2023-02-15T23:33:23.012Z,78.70
2023-02-15T23:35:51.017Z,78.70
2023-02-15T23:38:20.375Z,78.80
2023-02-15T23:41:09.671Z,78.70
2023-02-15T23:43:36.974Z,78.80
2023-02-15T23:46:06.550Z,78.80
2023-02-15T23:48:38.299Z,79.00
2023-02-15T23:51:10.673Z,79.30
2023-02-15T23:53:37.766Z,79.70
2023-02-15T23:56:05.251Z,79.90
2023-02-15T23:58:40.311Z,79.40
